sensor_id;sensor_type;location;lat;lon;timestamp;P1;durP1;ratioP1;P2;durP2;ratioP2
31848;SDS011;18414;59.352;18.152;2022-12-04T00:01:17;7.00;;;3.37;;
31848;SDS011;18414;59.352;18.152;2022-12-04T00:03:44;4.03;;;3.23;;
31848;SDS011;18414;59.352;18.152;2022-12-04T00:06:11;5.13;;;3.20;;
31848;SDS011;18414;59.352;18.152;2022-12-04T00:08:41;4.13;;;2.97;;
31848;SDS011;18414;59.352;18.152;2022-12-04T00:11:08;4.80;;;3.40;;
31848;SDS011;18414;59.352;18.152;2022-12-04T00:13:35;5.67;;;3.63;;
31848;SDS011;18414;59.352;18.152;2022-12-04T00:16:04;4.13;;;2.57;;
31848;SDS011;18414;59.352;18.152;2022-12-04T00:18:30;4.43;;;3.23;;
31848;SDS011;18414;59.352;18.152;2022-12-04T00:20:56;5.40;;;2.90;;
31848;SDS011;18414;59.352;18.152;2022-12-04T00:23:21;4.80;;;3.27;;
31848;SDS011;18414;59.352;18.152;2022-12-04T00:25:47;3.97;;;2.90;;
31848;SDS011;18414;59.352;18.152;2022-12-04T00:28:16;5.43;;;3.60;;
31848;SDS011;18414;59.352;18.152;2022-12-04T00:30:42;4.63;;;3.20;;
31848;SDS011;18414;59.352;18.152;2022-12-04T00:33:09;4.47;;;2.80;;
31848;SDS011;18414;59.352;18.152;2022-12-04T00:35:35;5.67;;;3.57;;
31848;SDS011;18414;59.352;18.152;2022-12-04T00:38:00;6.33;;;2.90;;
31848;SDS011;18414;59.352;18.152;2022-12-04T00:40:27;5.47;;;3.40;;
31848;SDS011;18414;59.352;18.152;2022-12-04T00:42:52;5.03;;;3.10;;
31848;SDS011;18414;59.352;18.152;2022-12-04T00:45:17;5.40;;;2.87;;
31848;SDS011;18414;59.352;18.152;2022-12-04T00:47:43;4.37;;;2.97;;
31848;SDS011;18414;59.352;18.152;2022-12-04T00:50:09;4.63;;;3.07;;
31848;SDS011;18414;59.352;18.152;2022-12-04T00:52:35;3.83;;;2.90;;
31848;SDS011;18414;59.352;18.152;2022-12-04T00:55:00;5.43;;;2.93;;
31848;SDS011;18414;59.352;18.152;2022-12-04T00:57:25;5.40;;;2.90;;
31848;SDS011;18414;59.352;18.152;2022-12-04T00:59:51;4.87;;;3.13;;
31848;SDS011;18414;59.352;18.152;2022-12-04T01:02:16;4.80;;;2.97;;
31848;SDS011;18414;59.352;18.152;2022-12-04T01:04:41;5.67;;;3.30;;
31848;SDS011;18414;59.352;18.152;2022-12-04T01:07:07;3.77;;;2.73;;
31848;SDS011;18414;59.352;18.152;2022-12-04T01:09:32;3.73;;;2.87;;
31848;SDS011;18414;59.352;18.152;2022-12-04T01:11:57;5.63;;;3.47;;
31848;SDS011;18414;59.352;18.152;2022-12-04T01:14:23;4.23;;;2.60;;
31848;SDS011;18414;59.352;18.152;2022-12-04T01:16:48;4.93;;;2.80;;
31848;SDS011;18414;59.352;18.152;2022-12-04T01:19:14;3.60;;;2.60;;
31848;SDS011;18414;59.352;18.152;2022-12-04T01:21:39;4.37;;;2.77;;
31848;SDS011;18414;59.352;18.152;2022-12-04T01:24:04;4.47;;;2.93;;
31848;SDS011;18414;59.352;18.152;2022-12-04T01:26:30;3.43;;;2.67;;
31848;SDS011;18414;59.352;18.152;2022-12-04T01:28:56;6.60;;;3.10;;
31848;SDS011;18414;59.352;18.152;2022-12-04T01:31:22;4.47;;;2.97;;
31848;SDS011;18414;59.352;18.152;2022-12-04T01:33:47;4.03;;;2.97;;
31848;SDS011;18414;59.352;18.152;2022-12-04T01:36:15;3.90;;;2.93;;
31848;SDS011;18414;59.352;18.152;2022-12-04T01:38:43;4.27;;;3.10;;
31848;SDS011;18414;59.352;18.152;2022-12-04T01:41:09;4.80;;;2.80;;
31848;SDS011;18414;59.352;18.152;2022-12-04T01:43:36;5.33;;;3.00;;
31848;SDS011;18414;59.352;18.152;2022-12-04T01:46:03;5.30;;;2.90;;
31848;SDS011;18414;59.352;18.152;2022-12-04T01:48:29;4.67;;;3.13;;
31848;SDS011;18414;59.352;18.152;2022-12-04T01:51:13;3.37;;;2.67;;
31848;SDS011;18414;59.352;18.152;2022-12-04T01:53:46;3.97;;;2.63;;
31848;SDS011;18414;59.352;18.152;2022-12-04T01:56:13;4.50;;;3.00;;
31848;SDS011;18414;59.352;18.152;2022-12-04T01:58:40;4.57;;;2.93;;
31848;SDS011;18414;59.352;18.152;2022-12-04T02:01:08;5.43;;;3.17;;
31848;SDS011;18414;59.352;18.152;2022-12-04T02:03:34;3.93;;;2.73;;
31848;SDS011;18414;59.352;18.152;2022-12-04T02:06:00;5.97;;;3.30;;
31848;SDS011;18414;59.352;18.152;2022-12-04T02:08:25;6.87;;;3.37;;
31848;SDS011;18414;59.352;18.152;2022-12-04T02:10:54;4.83;;;3.07;;
31848;SDS011;18414;59.352;18.152;2022-12-04T02:13:42;4.30;;;2.73;;
31848;SDS011;18414;59.352;18.152;2022-12-04T02:16:21;4.27;;;2.90;;
31848;SDS011;18414;59.352;18.152;2022-12-04T02:21:43;3.57;;;2.87;;
31848;SDS011;18414;59.352;18.152;2022-12-04T02:29:49;4.87;;;2.80;;
31848;SDS011;18414;59.352;18.152;2022-12-04T02:37:29;4.20;;;2.90;;
31848;SDS011;18414;59.352;18.152;2022-12-04T02:42:37;3.80;;;2.90;;
31848;SDS011;18414;59.352;18.152;2022-12-04T02:45:07;4.90;;;2.90;;
31848;SDS011;18414;59.352;18.152;2022-12-04T02:47:35;5.20;;;3.50;;
31848;SDS011;18414;59.352;18.152;2022-12-04T02:50:04;5.97;;;2.93;;
31848;SDS011;18414;59.352;18.152;2022-12-04T02:52:34;4.03;;;3.07;;
31848;SDS011;18414;59.352;18.152;2022-12-04T02:55:04;4.47;;;3.20;;
31848;SDS011;18414;59.352;18.152;2022-12-04T02:57:34;4.70;;;3.30;;
31848;SDS011;18414;59.352;18.152;2022-12-04T03:00:01;4.60;;;3.13;;
31848;SDS011;18414;59.352;18.152;2022-12-04T03:02:35;3.90;;;2.63;;
31848;SDS011;18414;59.352;18.152;2022-12-04T03:05:07;3.93;;;2.87;;
31848;SDS011;18414;59.352;18.152;2022-12-04T03:07:43;5.03;;;3.23;;
31848;SDS011;18414;59.352;18.152;2022-12-04T03:10:16;4.03;;;2.73;;
31848;SDS011;18414;59.352;18.152;2022-12-04T03:12:48;3.43;;;2.70;;
31848;SDS011;18414;59.352;18.152;2022-12-04T03:15:25;4.63;;;2.67;;
31848;SDS011;18414;59.352;18.152;2022-12-04T03:17:57;3.60;;;2.50;;
31848;SDS011;18414;59.352;18.152;2022-12-04T03:20:26;4.40;;;2.93;;
31848;SDS011;18414;59.352;18.152;2022-12-04T03:22:54;4.70;;;3.17;;
31848;SDS011;18414;59.352;18.152;2022-12-04T03:25:25;4.47;;;2.73;;
31848;SDS011;18414;59.352;18.152;2022-12-04T03:28:04;4.97;;;3.10;;
31848;SDS011;18414;59.352;18.152;2022-12-04T03:30:38;4.03;;;2.80;;
31848;SDS011;18414;59.352;18.152;2022-12-04T03:33:19;3.67;;;2.93;;
31848;SDS011;18414;59.352;18.152;2022-12-04T03:35:48;4.27;;;2.90;;
31848;SDS011;18414;59.352;18.152;2022-12-04T03:38:27;4.70;;;3.07;;
31848;SDS011;18414;59.352;18.152;2022-12-04T03:40:58;4.30;;;2.93;;
31848;SDS011;18414;59.352;18.152;2022-12-04T03:46:02;5.20;;;2.73;;
31848;SDS011;18414;59.352;18.152;2022-12-04T03:51:38;5.13;;;3.13;;
31848;SDS011;18414;59.352;18.152;2022-12-04T03:54:08;5.80;;;3.17;;
31848;SDS011;18414;59.352;18.152;2022-12-04T03:56:38;5.00;;;2.80;;
31848;SDS011;18414;59.352;18.152;2022-12-04T03:59:09;4.47;;;3.10;;
31848;SDS011;18414;59.352;18.152;2022-12-04T04:01:37;4.57;;;2.90;;
31848;SDS011;18414;59.352;18.152;2022-12-04T04:04:06;4.83;;;3.13;;
31848;SDS011;18414;59.352;18.152;2022-12-04T04:06:37;2.77;;;1.73;;
31848;SDS011;18414;59.352;18.152;2022-12-04T04:09:06;4.23;;;2.90;;
31848;SDS011;18414;59.352;18.152;2022-12-04T04:11:36;4.90;;;3.17;;
31848;SDS011;18414;59.352;18.152;2022-12-04T04:14:13;3.53;;;2.40;;
31848;SDS011;18414;59.352;18.152;2022-12-04T04:17:09;3.77;;;2.63;;
31848;SDS011;18414;59.352;18.152;2022-12-04T04:19:58;4.97;;;3.00;;
31848;SDS011;18414;59.352;18.152;2022-12-04T04:22:49;4.00;;;2.60;;
31848;SDS011;18414;59.352;18.152;2022-12-04T04:25:35;4.50;;;3.00;;
31848;SDS011;18414;59.352;18.152;2022-12-04T04:28:02;4.03;;;2.63;;
31848;SDS011;18414;59.352;18.152;2022-12-04T04:30:30;5.53;;;2.83;;
31848;SDS011;18414;59.352;18.152;2022-12-04T04:36:08;4.07;;;2.50;;
31848;SDS011;18414;59.352;18.152;2022-12-04T04:38:27;4.00;;;2.97;;
31848;SDS011;18414;59.352;18.152;2022-12-04T04:41:04;6.43;;;2.60;;
31848;SDS011;18414;59.352;18.152;2022-12-04T04:43:43;3.40;;;2.43;;
31848;SDS011;18414;59.352;18.152;2022-12-04T04:46:20;3.77;;;2.60;;
31848;SDS011;18414;59.352;18.152;2022-12-04T04:48:50;5.10;;;2.87;;
31848;SDS011;18414;59.352;18.152;2022-12-04T04:51:16;3.47;;;2.60;;
31848;SDS011;18414;59.352;18.152;2022-12-04T04:53:44;3.63;;;2.70;;
31848;SDS011;18414;59.352;18.152;2022-12-04T04:56:12;3.60;;;2.60;;
31848;SDS011;18414;59.352;18.152;2022-12-04T04:58:37;4.63;;;2.53;;
31848;SDS011;18414;59.352;18.152;2022-12-04T05:01:05;3.70;;;2.77;;
31848;SDS011;18414;59.352;18.152;2022-12-04T05:03:32;4.20;;;2.60;;
31848;SDS011;18414;59.352;18.152;2022-12-04T05:05:58;2.97;;;2.30;;
31848;SDS011;18414;59.352;18.152;2022-12-04T05:08:23;5.10;;;2.23;;
31848;SDS011;18414;59.352;18.152;2022-12-04T05:10:49;5.57;;;2.87;;
31848;SDS011;18414;59.352;18.152;2022-12-04T05:13:15;2.27;;;1.73;;
31848;SDS011;18414;59.352;18.152;2022-12-04T05:15:41;3.47;;;2.23;;
31848;SDS011;18414;59.352;18.152;2022-12-04T05:18:07;4.33;;;2.70;;
31848;SDS011;18414;59.352;18.152;2022-12-04T05:20:32;4.03;;;2.47;;
31848;SDS011;18414;59.352;18.152;2022-12-04T05:22:58;3.70;;;2.47;;
31848;SDS011;18414;59.352;18.152;2022-12-04T05:25:24;3.10;;;2.40;;
31848;SDS011;18414;59.352;18.152;2022-12-04T05:27:49;3.33;;;2.23;;
31848;SDS011;18414;59.352;18.152;2022-12-04T05:30:15;3.07;;;2.23;;
31848;SDS011;18414;59.352;18.152;2022-12-04T05:32:40;4.00;;;2.60;;
31848;SDS011;18414;59.352;18.152;2022-12-04T05:35:06;3.63;;;2.10;;
31848;SDS011;18414;59.352;18.152;2022-12-04T05:37:34;3.70;;;2.63;;
31848;SDS011;18414;59.352;18.152;2022-12-04T05:40:00;3.57;;;2.30;;
31848;SDS011;18414;59.352;18.152;2022-12-04T05:42:26;5.20;;;2.17;;
31848;SDS011;18414;59.352;18.152;2022-12-04T05:44:51;2.23;;;1.53;;
31848;SDS011;18414;59.352;18.152;2022-12-04T05:47:17;2.77;;;2.20;;
31848;SDS011;18414;59.352;18.152;2022-12-04T05:49:42;2.73;;;2.10;;
31848;SDS011;18414;59.352;18.152;2022-12-04T05:52:08;3.37;;;1.97;;
31848;SDS011;18414;59.352;18.152;2022-12-04T05:54:34;3.03;;;2.40;;
31848;SDS011;18414;59.352;18.152;2022-12-04T05:56:59;3.33;;;2.13;;
31848;SDS011;18414;59.352;18.152;2022-12-04T05:59:25;3.40;;;2.30;;
31848;SDS011;18414;59.352;18.152;2022-12-04T06:01:50;3.23;;;2.37;;
31848;SDS011;18414;59.352;18.152;2022-12-04T06:04:16;4.23;;;2.40;;
31848;SDS011;18414;59.352;18.152;2022-12-04T06:06:41;3.53;;;2.40;;
31848;SDS011;18414;59.352;18.152;2022-12-04T06:09:07;3.30;;;2.43;;
31848;SDS011;18414;59.352;18.152;2022-12-04T06:11:34;3.03;;;2.30;;
31848;SDS011;18414;59.352;18.152;2022-12-04T06:14:01;2.80;;;1.73;;
31848;SDS011;18414;59.352;18.152;2022-12-04T06:16:29;3.83;;;2.03;;
31848;SDS011;18414;59.352;18.152;2022-12-04T06:18:57;2.00;;;1.80;;
31848;SDS011;18414;59.352;18.152;2022-12-04T06:21:24;4.17;;;1.90;;
31848;SDS011;18414;59.352;18.152;2022-12-04T06:23:51;3.27;;;2.00;;
31848;SDS011;18414;59.352;18.152;2022-12-04T06:26:17;3.20;;;2.30;;
31848;SDS011;18414;59.352;18.152;2022-12-04T06:28:45;3.17;;;2.10;;
31848;SDS011;18414;59.352;18.152;2022-12-04T06:31:11;3.13;;;2.33;;
31848;SDS011;18414;59.352;18.152;2022-12-04T06:33:38;3.67;;;2.40;;
31848;SDS011;18414;59.352;18.152;2022-12-04T06:36:08;3.27;;;2.33;;
31848;SDS011;18414;59.352;18.152;2022-12-04T06:38:36;2.53;;;1.90;;
31848;SDS011;18414;59.352;18.152;2022-12-04T06:41:02;3.60;;;2.20;;
31848;SDS011;18414;59.352;18.152;2022-12-04T06:43:32;4.27;;;2.53;;
31848;SDS011;18414;59.352;18.152;2022-12-04T06:45:58;3.17;;;2.30;;
31848;SDS011;18414;59.352;18.152;2022-12-04T06:48:25;3.73;;;2.37;;
31848;SDS011;18414;59.352;18.152;2022-12-04T06:51:03;3.57;;;2.43;;
31848;SDS011;18414;59.352;18.152;2022-12-04T06:53:30;4.20;;;2.50;;
31848;SDS011;18414;59.352;18.152;2022-12-04T06:56:00;2.53;;;2.00;;
31848;SDS011;18414;59.352;18.152;2022-12-04T06:58:27;3.00;;;2.30;;
31848;SDS011;18414;59.352;18.152;2022-12-04T07:00:52;3.13;;;2.30;;
31848;SDS011;18414;59.352;18.152;2022-12-04T07:03:19;3.20;;;2.37;;
31848;SDS011;18414;59.352;18.152;2022-12-04T07:05:44;3.40;;;2.37;;
31848;SDS011;18414;59.352;18.152;2022-12-04T07:08:10;1.80;;;1.50;;
31848;SDS011;18414;59.352;18.152;2022-12-04T07:10:36;2.87;;;2.10;;
31848;SDS011;18414;59.352;18.152;2022-12-04T07:13:02;2.00;;;1.77;;
31848;SDS011;18414;59.352;18.152;2022-12-04T07:15:28;3.40;;;2.57;;
31848;SDS011;18414;59.352;18.152;2022-12-04T07:17:53;2.80;;;2.27;;
31848;SDS011;18414;59.352;18.152;2022-12-04T07:20:18;5.13;;;2.27;;
31848;SDS011;18414;59.352;18.152;2022-12-04T07:22:44;3.70;;;2.37;;
31848;SDS011;18414;59.352;18.152;2022-12-04T07:25:09;2.93;;;2.20;;
31848;SDS011;18414;59.352;18.152;2022-12-04T07:27:35;4.07;;;2.60;;
31848;SDS011;18414;59.352;18.152;2022-12-04T07:30:00;2.90;;;2.40;;
31848;SDS011;18414;59.352;18.152;2022-12-04T07:32:25;3.00;;;2.40;;
31848;SDS011;18414;59.352;18.152;2022-12-04T07:34:51;2.90;;;2.17;;
31848;SDS011;18414;59.352;18.152;2022-12-04T07:37:16;3.10;;;2.40;;
31848;SDS011;18414;59.352;18.152;2022-12-04T07:39:41;3.00;;;2.10;;
31848;SDS011;18414;59.352;18.152;2022-12-04T07:42:07;2.90;;;2.10;;
31848;SDS011;18414;59.352;18.152;2022-12-04T07:44:32;3.23;;;2.33;;
31848;SDS011;18414;59.352;18.152;2022-12-04T07:46:58;3.70;;;2.40;;
31848;SDS011;18414;59.352;18.152;2022-12-04T07:49:23;2.63;;;2.17;;
31848;SDS011;18414;59.352;18.152;2022-12-04T07:51:48;1.63;;;1.53;;
31848;SDS011;18414;59.352;18.152;2022-12-04T07:54:14;3.17;;;1.90;;
31848;SDS011;18414;59.352;18.152;2022-12-04T07:56:39;3.97;;;2.30;;
31848;SDS011;18414;59.352;18.152;2022-12-04T07:59:05;3.43;;;2.20;;
31848;SDS011;18414;59.352;18.152;2022-12-04T08:01:30;3.70;;;2.27;;
31848;SDS011;18414;59.352;18.152;2022-12-04T08:03:57;3.20;;;1.73;;
31848;SDS011;18414;59.352;18.152;2022-12-04T08:06:23;3.03;;;2.07;;
31848;SDS011;18414;59.352;18.152;2022-12-04T08:08:50;3.53;;;2.37;;
31848;SDS011;18414;59.352;18.152;2022-12-04T08:11:17;5.57;;;2.53;;
31848;SDS011;18414;59.352;18.152;2022-12-04T08:13:43;2.40;;;1.93;;
31848;SDS011;18414;59.352;18.152;2022-12-04T08:16:10;3.17;;;2.33;;
31848;SDS011;18414;59.352;18.152;2022-12-04T08:18:36;5.63;;;2.50;;
31848;SDS011;18414;59.352;18.152;2022-12-04T08:21:05;2.87;;;1.90;;
31848;SDS011;18414;59.352;18.152;2022-12-04T08:23:33;3.77;;;2.53;;
31848;SDS011;18414;59.352;18.152;2022-12-04T08:25:59;3.40;;;2.33;;
31848;SDS011;18414;59.352;18.152;2022-12-04T08:28:25;2.50;;;2.10;;
31848;SDS011;18414;59.352;18.152;2022-12-04T08:30:50;4.27;;;2.33;;
31848;SDS011;18414;59.352;18.152;2022-12-04T08:33:15;3.43;;;2.40;;
31848;SDS011;18414;59.352;18.152;2022-12-04T08:35:41;3.40;;;2.37;;
31848;SDS011;18414;59.352;18.152;2022-12-04T08:38:06;3.73;;;2.40;;
31848;SDS011;18414;59.352;18.152;2022-12-04T08:40:32;3.73;;;2.23;;
31848;SDS011;18414;59.352;18.152;2022-12-04T08:42:57;4.43;;;2.30;;
31848;SDS011;18414;59.352;18.152;2022-12-04T08:45:23;3.13;;;2.50;;
31848;SDS011;18414;59.352;18.152;2022-12-04T08:47:49;2.70;;;2.07;;
31848;SDS011;18414;59.352;18.152;2022-12-04T08:50:14;4.90;;;2.60;;
31848;SDS011;18414;59.352;18.152;2022-12-04T08:52:40;3.43;;;2.40;;
31848;SDS011;18414;59.352;18.152;2022-12-04T08:55:05;3.40;;;2.47;;
31848;SDS011;18414;59.352;18.152;2022-12-04T08:57:31;5.13;;;2.70;;
31848;SDS011;18414;59.352;18.152;2022-12-04T08:59:56;3.40;;;2.23;;
31848;SDS011;18414;59.352;18.152;2022-12-04T09:02:22;3.13;;;2.30;;
31848;SDS011;18414;59.352;18.152;2022-12-04T09:04:47;4.03;;;2.67;;
31848;SDS011;18414;59.352;18.152;2022-12-04T09:07:12;4.37;;;2.73;;
31848;SDS011;18414;59.352;18.152;2022-12-04T09:09:38;4.27;;;2.80;;
31848;SDS011;18414;59.352;18.152;2022-12-04T09:12:03;4.57;;;2.60;;
31848;SDS011;18414;59.352;18.152;2022-12-04T09:14:28;3.73;;;2.73;;
31848;SDS011;18414;59.352;18.152;2022-12-04T09:16:54;4.27;;;2.87;;
31848;SDS011;18414;59.352;18.152;2022-12-04T09:19:19;2.60;;;2.03;;
31848;SDS011;18414;59.352;18.152;2022-12-04T09:21:45;4.03;;;2.83;;
31848;SDS011;18414;59.352;18.152;2022-12-04T09:24:11;3.67;;;2.83;;
31848;SDS011;18414;59.352;18.152;2022-12-04T09:26:37;4.27;;;2.73;;
31848;SDS011;18414;59.352;18.152;2022-12-04T09:29:03;4.77;;;2.83;;
31848;SDS011;18414;59.352;18.152;2022-12-04T09:31:29;4.83;;;3.07;;
31848;SDS011;18414;59.352;18.152;2022-12-04T09:33:56;3.53;;;2.60;;
31848;SDS011;18414;59.352;18.152;2022-12-04T09:36:22;4.03;;;2.87;;
31848;SDS011;18414;59.352;18.152;2022-12-04T09:38:48;6.27;;;3.20;;
31848;SDS011;18414;59.352;18.152;2022-12-04T09:43:52;10.30;;;3.23;;
31848;SDS011;18414;59.352;18.152;2022-12-04T09:46:26;4.60;;;3.17;;
31848;SDS011;18414;59.352;18.152;2022-12-04T09:48:55;4.43;;;2.97;;
31848;SDS011;18414;59.352;18.152;2022-12-04T09:51:22;5.90;;;3.40;;
31848;SDS011;18414;59.352;18.152;2022-12-04T09:53:51;3.83;;;2.97;;
31848;SDS011;18414;59.352;18.152;2022-12-04T09:56:19;4.17;;;2.90;;
31848;SDS011;18414;59.352;18.152;2022-12-04T09:58:49;4.23;;;2.90;;
31848;SDS011;18414;59.352;18.152;2022-12-04T10:02:09;3.73;;;3.03;;
31848;SDS011;18414;59.352;18.152;2022-12-04T10:04:20;5.03;;;3.10;;
31848;SDS011;18414;59.352;18.152;2022-12-04T10:07:32;3.87;;;2.80;;
31848;SDS011;18414;59.352;18.152;2022-12-04T10:15:14;5.13;;;3.60;;
31848;SDS011;18414;59.352;18.152;2022-12-04T10:18:02;4.00;;;2.83;;
31848;SDS011;18414;59.352;18.152;2022-12-04T10:23:36;4.93;;;3.57;;
31848;SDS011;18414;59.352;18.152;2022-12-04T10:26:15;4.90;;;3.43;;
31848;SDS011;18414;59.352;18.152;2022-12-04T10:28:49;5.13;;;3.57;;
31848;SDS011;18414;59.352;18.152;2022-12-04T10:31:18;4.33;;;3.33;;
31848;SDS011;18414;59.352;18.152;2022-12-04T10:33:44;5.43;;;3.57;;
31848;SDS011;18414;59.352;18.152;2022-12-04T10:36:14;3.30;;;2.50;;
31848;SDS011;18414;59.352;18.152;2022-12-04T10:38:43;4.77;;;3.30;;
31848;SDS011;18414;59.352;18.152;2022-12-04T10:41:14;4.80;;;3.33;;
31848;SDS011;18414;59.352;18.152;2022-12-04T10:43:45;9.77;;;3.30;;
31848;SDS011;18414;59.352;18.152;2022-12-04T10:46:18;4.00;;;2.83;;
31848;SDS011;18414;59.352;18.152;2022-12-04T10:48:48;4.67;;;3.00;;
31848;SDS011;18414;59.352;18.152;2022-12-04T10:51:16;5.07;;;3.10;;
31848;SDS011;18414;59.352;18.152;2022-12-04T10:53:45;3.50;;;2.27;;
31848;SDS011;18414;59.352;18.152;2022-12-04T10:56:17;3.27;;;2.47;;
31848;SDS011;18414;59.352;18.152;2022-12-04T10:58:58;2.80;;;2.20;;
31848;SDS011;18414;59.352;18.152;2022-12-04T11:01:28;3.63;;;2.70;;
31848;SDS011;18414;59.352;18.152;2022-12-04T11:03:59;2.73;;;2.03;;
31848;SDS011;18414;59.352;18.152;2022-12-04T11:06:40;5.00;;;3.07;;
31848;SDS011;18414;59.352;18.152;2022-12-04T11:09:06;3.63;;;2.70;;
31848;SDS011;18414;59.352;18.152;2022-12-04T11:11:32;4.53;;;3.00;;
31848;SDS011;18414;59.352;18.152;2022-12-04T11:14:20;3.07;;;2.40;;
31848;SDS011;18414;59.352;18.152;2022-12-04T11:16:46;4.30;;;3.07;;
31848;SDS011;18414;59.352;18.152;2022-12-04T11:19:17;3.90;;;2.47;;
31848;SDS011;18414;59.352;18.152;2022-12-04T11:21:54;5.27;;;3.57;;
31848;SDS011;18414;59.352;18.152;2022-12-04T11:24:29;3.86;;;3.07;;
31848;SDS011;18414;59.352;18.152;2022-12-04T11:26:57;3.27;;;2.47;;
31848;SDS011;18414;59.352;18.152;2022-12-04T11:29:27;4.37;;;2.83;;
31848;SDS011;18414;59.352;18.152;2022-12-04T11:31:55;4.07;;;2.97;;
31848;SDS011;18414;59.352;18.152;2022-12-04T11:34:21;4.37;;;2.97;;
31848;SDS011;18414;59.352;18.152;2022-12-04T11:36:53;5.30;;;3.40;;
31848;SDS011;18414;59.352;18.152;2022-12-04T11:39:23;5.83;;;3.27;;
31848;SDS011;18414;59.352;18.152;2022-12-04T11:42:04;5.90;;;3.13;;
31848;SDS011;18414;59.352;18.152;2022-12-04T11:44:51;4.50;;;2.90;;
31848;SDS011;18414;59.352;18.152;2022-12-04T11:47:24;3.83;;;3.17;;
31848;SDS011;18414;59.352;18.152;2022-12-04T11:52:44;4.00;;;2.80;;
31848;SDS011;18414;59.352;18.152;2022-12-04T12:00:29;3.13;;;2.50;;
31848;SDS011;18414;59.352;18.152;2022-12-04T12:03:17;3.33;;;2.57;;
31848;SDS011;18414;59.352;18.152;2022-12-04T12:06:03;4.17;;;2.40;;
31848;SDS011;18414;59.352;18.152;2022-12-04T12:08:52;5.03;;;3.20;;
31848;SDS011;18414;59.352;18.152;2022-12-04T12:11:41;4.80;;;3.00;;
31848;SDS011;18414;59.352;18.152;2022-12-04T12:14:31;3.53;;;3.13;;
31848;SDS011;18414;59.352;18.152;2022-12-04T12:17:14;4.47;;;3.10;;
31848;SDS011;18414;59.352;18.152;2022-12-04T12:19:45;4.37;;;3.33;;
31848;SDS011;18414;59.352;18.152;2022-12-04T12:30:09;5.07;;;3.33;;
31848;SDS011;18414;59.352;18.152;2022-12-04T12:32:57;4.33;;;3.13;;
31848;SDS011;18414;59.352;18.152;2022-12-04T12:35:38;5.03;;;3.40;;
31848;SDS011;18414;59.352;18.152;2022-12-04T12:38:06;6.30;;;4.23;;
31848;SDS011;18414;59.352;18.152;2022-12-04T12:40:42;4.23;;;3.30;;
31848;SDS011;18414;59.352;18.152;2022-12-04T12:43:15;5.90;;;3.93;;
31848;SDS011;18414;59.352;18.152;2022-12-04T12:45:51;5.03;;;3.37;;
31848;SDS011;18414;59.352;18.152;2022-12-04T12:48:22;6.60;;;3.80;;
31848;SDS011;18414;59.352;18.152;2022-12-04T12:50:56;5.43;;;3.60;;
31848;SDS011;18414;59.352;18.152;2022-12-04T12:53:28;5.83;;;3.90;;
31848;SDS011;18414;59.352;18.152;2022-12-04T12:56:01;4.40;;;3.57;;
31848;SDS011;18414;59.352;18.152;2022-12-04T13:04:12;4.43;;;3.00;;
31848;SDS011;18414;59.352;18.152;2022-12-04T13:06:44;4.47;;;3.20;;
31848;SDS011;18414;59.352;18.152;2022-12-04T13:09:21;6.03;;;3.43;;
31848;SDS011;18414;59.352;18.152;2022-12-04T13:11:56;4.73;;;3.63;;
31848;SDS011;18414;59.352;18.152;2022-12-04T13:14:23;4.53;;;3.40;;
31848;SDS011;18414;59.352;18.152;2022-12-04T13:16:49;4.90;;;3.30;;
31848;SDS011;18414;59.352;18.152;2022-12-04T13:25:33;4.63;;;3.33;;
31848;SDS011;18414;59.352;18.152;2022-12-04T13:28:11;4.00;;;3.07;;
31848;SDS011;18414;59.352;18.152;2022-12-04T13:41:55;4.37;;;2.80;;
31848;SDS011;18414;59.352;18.152;2022-12-04T13:44:22;4.63;;;3.33;;
31848;SDS011;18414;59.352;18.152;2022-12-04T13:46:52;4.87;;;3.13;;
31848;SDS011;18414;59.352;18.152;2022-12-04T13:51:46;3.33;;;2.23;;
31848;SDS011;18414;59.352;18.152;2022-12-04T13:56:38;3.80;;;3.13;;
31848;SDS011;18414;59.352;18.152;2022-12-04T14:01:56;4.23;;;3.27;;
31848;SDS011;18414;59.352;18.152;2022-12-04T14:04:25;4.50;;;3.10;;
31848;SDS011;18414;59.352;18.152;2022-12-04T14:06:51;4.27;;;3.00;;
31848;SDS011;18414;59.352;18.152;2022-12-04T14:09:19;4.37;;;3.23;;
31848;SDS011;18414;59.352;18.152;2022-12-04T14:11:47;3.23;;;1.70;;
31848;SDS011;18414;59.352;18.152;2022-12-04T14:14:25;3.97;;;3.00;;
31848;SDS011;18414;59.352;18.152;2022-12-04T14:16:55;4.37;;;3.43;;
31848;SDS011;18414;59.352;18.152;2022-12-04T14:19:26;4.33;;;3.43;;
31848;SDS011;18414;59.352;18.152;2022-12-04T14:21:55;5.27;;;3.13;;
31848;SDS011;18414;59.352;18.152;2022-12-04T14:26:49;4.70;;;3.43;;
31848;SDS011;18414;59.352;18.152;2022-12-04T14:30:01;4.37;;;3.10;;
31848;SDS011;18414;59.352;18.152;2022-12-04T14:32:17;3.20;;;2.33;;
31848;SDS011;18414;59.352;18.152;2022-12-04T14:34:46;3.70;;;2.77;;
31848;SDS011;18414;59.352;18.152;2022-12-04T14:37:32;4.17;;;3.20;;
31848;SDS011;18414;59.352;18.152;2022-12-04T14:40:00;4.23;;;3.20;;
31848;SDS011;18414;59.352;18.152;2022-12-04T14:42:37;5.17;;;3.57;;
31848;SDS011;18414;59.352;18.152;2022-12-04T14:45:04;5.97;;;3.83;;
31848;SDS011;18414;59.352;18.152;2022-12-04T14:53:02;8.43;;;3.90;;
31848;SDS011;18414;59.352;18.152;2022-12-04T14:58:18;4.63;;;2.97;;
31848;SDS011;18414;59.352;18.152;2022-12-04T15:00:53;3.77;;;2.80;;
31848;SDS011;18414;59.352;18.152;2022-12-04T15:03:21;5.00;;;3.23;;
31848;SDS011;18414;59.352;18.152;2022-12-04T15:05:48;3.97;;;2.90;;
31848;SDS011;18414;59.352;18.152;2022-12-04T15:08:14;5.40;;;3.30;;
31848;SDS011;18414;59.352;18.152;2022-12-04T15:10:39;1.70;;;1.50;;
31848;SDS011;18414;59.352;18.152;2022-12-04T15:13:30;3.90;;;3.00;;
31848;SDS011;18414;59.352;18.152;2022-12-04T15:15:57;3.83;;;2.93;;
31848;SDS011;18414;59.352;18.152;2022-12-04T15:18:27;4.10;;;3.30;;
31848;SDS011;18414;59.352;18.152;2022-12-04T15:20:54;3.70;;;2.70;;
31848;SDS011;18414;59.352;18.152;2022-12-04T15:23:24;4.27;;;3.43;;
31848;SDS011;18414;59.352;18.152;2022-12-04T15:25:59;5.90;;;3.43;;
31848;SDS011;18414;59.352;18.152;2022-12-04T15:28:29;5.60;;;3.50;;
31848;SDS011;18414;59.352;18.152;2022-12-04T15:30:58;5.37;;;3.43;;
31848;SDS011;18414;59.352;18.152;2022-12-04T15:33:27;4.87;;;3.10;;
31848;SDS011;18414;59.352;18.152;2022-12-04T15:36:02;4.37;;;3.20;;
31848;SDS011;18414;59.352;18.152;2022-12-04T15:38:30;4.40;;;3.40;;
31848;SDS011;18414;59.352;18.152;2022-12-04T15:40:56;4.73;;;3.30;;
31848;SDS011;18414;59.352;18.152;2022-12-04T15:43:28;4.87;;;3.40;;
31848;SDS011;18414;59.352;18.152;2022-12-04T15:46:13;4.73;;;3.50;;
31848;SDS011;18414;59.352;18.152;2022-12-04T15:48:39;4.27;;;3.10;;
31848;SDS011;18414;59.352;18.152;2022-12-04T15:51:05;4.47;;;3.07;;
31848;SDS011;18414;59.352;18.152;2022-12-04T15:53:32;2.63;;;2.27;;
31848;SDS011;18414;59.352;18.152;2022-12-04T15:56:06;4.07;;;3.40;;
31848;SDS011;18414;59.352;18.152;2022-12-04T15:58:34;4.43;;;3.40;;
31848;SDS011;18414;59.352;18.152;2022-12-04T16:01:05;3.80;;;2.63;;
31848;SDS011;18414;59.352;18.152;2022-12-04T16:06:13;5.13;;;3.67;;
31848;SDS011;18414;59.352;18.152;2022-12-04T16:08:57;4.77;;;2.97;;
31848;SDS011;18414;59.352;18.152;2022-12-04T16:11:28;4.67;;;3.30;;
31848;SDS011;18414;59.352;18.152;2022-12-04T16:14:03;4.50;;;3.20;;
31848;SDS011;18414;59.352;18.152;2022-12-04T16:16:31;5.83;;;3.73;;
31848;SDS011;18414;59.352;18.152;2022-12-04T16:18:57;4.57;;;3.03;;
31848;SDS011;18414;59.352;18.152;2022-12-04T16:21:24;6.40;;;3.37;;
31848;SDS011;18414;59.352;18.152;2022-12-04T16:23:59;6.70;;;4.13;;